sensor_id;sensor_type;location;lat;lon;timestamp;temperature;humidity
59015;DHT22;44799;53.382;14.666;2022-07-11T00:00:14;15.00;99.90
59015;DHT22;44799;53.382;14.666;2022-07-11T00:02:40;15.10;99.90
59015;DHT22;44799;53.382;14.666;2022-07-11T00:05:07;15.10;99.90
59015;DHT22;44799;53.382;14.666;2022-07-11T00:07:35;15.10;99.90
59015;DHT22;44799;53.382;14.666;2022-07-11T00:10:03;15.10;99.90
59015;DHT22;44799;53.382;14.666;2022-07-11T00:12:28;15.10;99.90
59015;DHT22;44799;53.382;14.666;2022-07-11T00:14:55;15.10;99.90
59015;DHT22;44799;53.382;14.666;2022-07-11T00:17:21;15.10;99.90
59015;DHT22;44799;53.382;14.666;2022-07-11T00:19:49;15.10;99.90
59015;DHT22;44799;53.382;14.666;2022-07-11T00:22:15;15.10;99.90
59015;DHT22;44799;53.382;14.666;2022-07-11T00:24:41;15.20;99.90
59015;DHT22;44799;53.382;14.666;2022-07-11T00:27:07;15.20;99.90
59015;DHT22;44799;53.382;14.666;2022-07-11T00:29:33;15.20;99.90
59015;DHT22;44799;53.382;14.666;2022-07-11T00:31:59;15.20;99.90
59015;DHT22;44799;53.382;14.666;2022-07-11T00:34:26;15.20;99.90
59015;DHT22;44799;53.382;14.666;2022-07-11T00:36:52;15.20;99.90
59015;DHT22;44799;53.382;14.666;2022-07-11T00:39:18;15.20;99.90
59015;DHT22;44799;53.382;14.666;2022-07-11T00:41:44;15.20;99.90
59015;DHT22;44799;53.382;14.666;2022-07-11T00:44:10;15.30;99.90
59015;DHT22;44799;53.382;14.666;2022-07-11T00:46:35;15.20;99.90
59015;DHT22;44799;53.382;14.666;2022-07-11T00:49:02;15.30;99.90
59015;DHT22;44799;53.382;14.666;2022-07-11T00:51:28;15.20;99.90
59015;DHT22;44799;53.382;14.666;2022-07-11T00:53:57;15.10;99.90
59015;DHT22;44799;53.382;14.666;2022-07-11T00:56:26;15.00;99.90
59015;DHT22;44799;53.382;14.666;2022-07-11T00:58:53;14.90;99.90
59015;DHT22;44799;53.382;14.666;2022-07-11T01:01:21;14.90;99.90
59015;DHT22;44799;53.382;14.666;2022-07-11T01:03:47;14.90;99.90
59015;DHT22;44799;53.382;14.666;2022-07-11T01:06:14;14.90;99.90
59015;DHT22;44799;53.382;14.666;2022-07-11T01:08:40;14.80;99.90
59015;DHT22;44799;53.382;14.666;2022-07-11T01:11:10;14.80;99.90
59015;DHT22;44799;53.382;14.666;2022-07-11T01:13:41;14.70;99.90
59015;DHT22;44799;53.382;14.666;2022-07-11T01:18:45;14.80;99.90
59015;DHT22;44799;53.382;14.666;2022-07-11T01:21:32;14.70;99.90
59015;DHT22;44799;53.382;14.666;2022-07-11T01:24:02;14.60;99.90
59015;DHT22;44799;53.382;14.666;2022-07-11T01:26:29;14.60;99.90
59015;DHT22;44799;53.382;14.666;2022-07-11T01:28:58;14.40;99.90
59015;DHT22;44799;53.382;14.666;2022-07-11T01:31:30;14.40;99.90
59015;DHT22;44799;53.382;14.666;2022-07-11T01:33:56;14.40;99.90
59015;DHT22;44799;53.382;14.666;2022-07-11T01:36:22;14.50;99.90
59015;DHT22;44799;53.382;14.666;2022-07-11T01:38:48;14.50;99.90
59015;DHT22;44799;53.382;14.666;2022-07-11T01:41:14;14.50;99.90
59015;DHT22;44799;53.382;14.666;2022-07-11T01:43:40;14.50;99.90
59015;DHT22;44799;53.382;14.666;2022-07-11T01:46:06;14.50;99.90
59015;DHT22;44799;53.382;14.666;2022-07-11T01:48:31;14.40;99.90
59015;DHT22;44799;53.382;14.666;2022-07-11T01:50:57;14.50;99.90
59015;DHT22;44799;53.382;14.666;2022-07-11T01:53:23;14.40;99.90
59015;DHT22;44799;53.382;14.666;2022-07-11T01:55:50;14.30;99.90
59015;DHT22;44799;53.382;14.666;2022-07-11T01:58:16;14.30;99.90
59015;DHT22;44799;53.382;14.666;2022-07-11T02:00:43;14.30;99.90
59015;DHT22;44799;53.382;14.666;2022-07-11T02:03:09;14.30;99.90
59015;DHT22;44799;53.382;14.666;2022-07-11T02:05:34;14.30;99.90
59015;DHT22;44799;53.382;14.666;2022-07-11T02:08:00;14.20;99.90
59015;DHT22;44799;53.382;14.666;2022-07-11T02:10:44;14.20;99.90
59015;DHT22;44799;53.382;14.666;2022-07-11T02:13:11;14.20;99.90
59015;DHT22;44799;53.382;14.666;2022-07-11T02:15:38;14.20;99.90
59015;DHT22;44799;53.382;14.666;2022-07-11T02:18:04;14.10;99.90
59015;DHT22;44799;53.382;14.666;2022-07-11T02:20:31;14.10;99.90
59015;DHT22;44799;53.382;14.666;2022-07-11T02:22:57;14.20;99.90
59015;DHT22;44799;53.382;14.666;2022-07-11T02:25:24;14.20;99.90
59015;DHT22;44799;53.382;14.666;2022-07-11T02:27:50;14.20;99.90
59015;DHT22;44799;53.382;14.666;2022-07-11T02:30:16;14.20;99.90
59015;DHT22;44799;53.382;14.666;2022-07-11T02:32:43;14.20;99.90
59015;DHT22;44799;53.382;14.666;2022-07-11T02:35:09;14.20;99.90
59015;DHT22;44799;53.382;14.666;2022-07-11T02:37:35;14.30;99.90
59015;DHT22;44799;53.382;14.666;2022-07-11T02:40:01;14.20;99.90
59015;DHT22;44799;53.382;14.666;2022-07-11T02:42:27;14.20;99.90
59015;DHT22;44799;53.382;14.666;2022-07-11T02:44:52;14.30;99.90
59015;DHT22;44799;53.382;14.666;2022-07-11T02:47:18;14.20;99.90
59015;DHT22;44799;53.382;14.666;2022-07-11T02:49:44;14.20;99.90
59015;DHT22;44799;53.382;14.666;2022-07-11T02:52:10;14.20;99.90
59015;DHT22;44799;53.382;14.666;2022-07-11T02:54:36;14.10;99.90
59015;DHT22;44799;53.382;14.666;2022-07-11T02:57:02;14.10;99.90
59015;DHT22;44799;53.382;14.666;2022-07-11T02:59:28;14.10;99.90
59015;DHT22;44799;53.382;14.666;2022-07-11T03:01:54;14.00;99.90
59015;DHT22;44799;53.382;14.666;2022-07-11T16:22:03;24.90;59.20
59015;DHT22;44799;53.382;14.666;2022-07-11T16:24:30;26.00;61.80
59015;DHT22;44799;53.382;14.666;2022-07-11T16:26:56;26.30;62.40
59015;DHT22;44799;53.382;14.666;2022-07-11T16:29:22;26.70;60.80
59015;DHT22;44799;53.382;14.666;2022-07-11T16:31:48;26.80;60.50
59015;DHT22;44799;53.382;14.666;2022-07-11T16:34:14;26.70;61.20
59015;DHT22;44799;53.382;14.666;2022-07-11T16:36:40;26.50;61.40
59015;DHT22;44799;53.382;14.666;2022-07-11T16:39:06;26.60;60.50
59015;DHT22;44799;53.382;14.666;2022-07-11T16:41:50;26.70;58.60
59015;DHT22;44799;53.382;14.666;2022-07-11T16:44:34;26.90;57.80
59015;DHT22;44799;53.382;14.666;2022-07-11T16:47:00;26.90;57.10
59015;DHT22;44799;53.382;14.666;2022-07-11T16:49:26;26.80;57.10
59015;DHT22;44799;53.382;14.666;2022-07-11T16:51:52;26.60;58.60
59015;DHT22;44799;53.382;14.666;2022-07-11T16:54:19;26.70;60.00
59015;DHT22;44799;53.382;14.666;2022-07-11T16:56:45;26.60;60.60
59015;DHT22;44799;53.382;14.666;2022-07-11T16:59:11;26.60;61.10
59015;DHT22;44799;53.382;14.666;2022-07-11T17:01:37;26.60;60.80
59015;DHT22;44799;53.382;14.666;2022-07-11T17:04:03;26.30;59.50
59015;DHT22;44799;53.382;14.666;2022-07-11T17:06:30;26.30;60.20
59015;DHT22;44799;53.382;14.666;2022-07-11T17:08:56;26.30;59.40
59015;DHT22;44799;53.382;14.666;2022-07-11T17:11:22;26.00;60.60
59015;DHT22;44799;53.382;14.666;2022-07-11T17:13:48;25.90;60.50
59015;DHT22;44799;53.382;14.666;2022-07-11T17:16:13;25.70;61.50
59015;DHT22;44799;53.382;14.666;2022-07-11T17:18:39;25.60;62.10
59015;DHT22;44799;53.382;14.666;2022-07-11T17:21:06;25.60;62.20
59015;DHT22;44799;53.382;14.666;2022-07-11T17:23:33;25.50;61.60
59015;DHT22;44799;53.382;14.666;2022-07-11T17:25:59;25.60;61.50
59015;DHT22;44799;53.382;14.666;2022-07-11T17:28:25;25.50;61.90
59015;DHT22;44799;53.382;14.666;2022-07-11T17:30:53;25.50;61.40
59015;DHT22;44799;53.382;14.666;2022-07-11T17:33:20;25.50;61.50
59015;DHT22;44799;53.382;14.666;2022-07-11T17:35:47;25.50;62.30
59015;DHT22;44799;53.382;14.666;2022-07-11T17:38:14;25.60;62.90
59015;DHT22;44799;53.382;14.666;2022-07-11T17:40:40;25.90;62.40
59015;DHT22;44799;53.382;14.666;2022-07-11T17:43:06;25.90;60.70
59015;DHT22;44799;53.382;14.666;2022-07-11T17:45:35;25.80;60.40
59015;DHT22;44799;53.382;14.666;2022-07-11T17:48:01;25.70;61.80
59015;DHT22;44799;53.382;14.666;2022-07-11T17:50:27;25.60;62.50
59015;DHT22;44799;53.382;14.666;2022-07-11T17:52:53;25.40;63.50
59015;DHT22;44799;53.382;14.666;2022-07-11T17:55:19;25.50;63.80
59015;DHT22;44799;53.382;14.666;2022-07-11T17:57:46;25.60;63.30
59015;DHT22;44799;53.382;14.666;2022-07-11T18:00:12;25.50;63.60
59015;DHT22;44799;53.382;14.666;2022-07-11T18:02:42;25.50;63.40
59015;DHT22;44799;53.382;14.666;2022-07-11T18:05:08;25.20;64.40
59015;DHT22;44799;53.382;14.666;2022-07-11T18:07:34;25.00;65.00
59015;DHT22;44799;53.382;14.666;2022-07-11T18:10:00;24.90;64.80
59015;DHT22;44799;53.382;14.666;2022-07-11T18:12:26;24.60;65.40
59015;DHT22;44799;53.382;14.666;2022-07-11T18:14:54;24.20;66.50
59015;DHT22;44799;53.382;14.666;2022-07-11T18:17:21;23.80;69.00
59015;DHT22;44799;53.382;14.666;2022-07-11T18:19:47;23.60;69.60
59015;DHT22;44799;53.382;14.666;2022-07-11T18:22:13;23.30;70.30
59015;DHT22;44799;53.382;14.666;2022-07-11T18:24:42;23.10;71.40
59015;DHT22;44799;53.382;14.666;2022-07-11T18:27:08;22.70;72.90
59015;DHT22;44799;53.382;14.666;2022-07-11T18:29:35;22.50;73.50
59015;DHT22;44799;53.382;14.666;2022-07-11T18:32:02;22.10;75.10
59015;DHT22;44799;53.382;14.666;2022-07-11T18:34:29;21.80;76.10
59015;DHT22;44799;53.382;14.666;2022-07-11T18:36:55;21.50;76.80
59015;DHT22;44799;53.382;14.666;2022-07-11T18:39:20;21.30;77.40
59015;DHT22;44799;53.382;14.666;2022-07-11T18:42:05;21.10;78.20
59015;DHT22;44799;53.382;14.666;2022-07-11T18:44:34;20.90;80.00
59015;DHT22;44799;53.382;14.666;2022-07-11T18:47:04;20.80;80.80
59015;DHT22;44799;53.382;14.666;2022-07-11T18:49:31;20.70;82.10
59015;DHT22;44799;53.382;14.666;2022-07-11T18:51:57;20.60;82.00
59015;DHT22;44799;53.382;14.666;2022-07-11T18:54:26;20.50;82.90
59015;DHT22;44799;53.382;14.666;2022-07-11T18:56:52;20.30;83.00
59015;DHT22;44799;53.382;14.666;2022-07-11T18:59:18;20.20;84.30
59015;DHT22;44799;53.382;14.666;2022-07-11T19:01:44;20.10;85.00
59015;DHT22;44799;53.382;14.666;2022-07-11T19:04:10;20.10;85.30
59015;DHT22;44799;53.382;14.666;2022-07-11T19:06:37;20.50;85.70
59015;DHT22;44799;53.382;14.666;2022-07-11T19:09:03;20.10;85.70
59015;DHT22;44799;53.382;14.666;2022-07-11T19:11:29;20.10;85.60
59015;DHT22;44799;53.382;14.666;2022-07-11T19:13:55;20.00;85.60
59015;DHT22;44799;53.382;14.666;2022-07-11T19:16:21;20.00;86.30
59015;DHT22;44799;53.382;14.666;2022-07-11T19:18:48;20.00;86.40
59015;DHT22;44799;53.382;14.666;2022-07-11T19:21:14;19.90;87.50
59015;DHT22;44799;53.382;14.666;2022-07-11T19:23:40;19.90;87.90
59015;DHT22;44799;53.382;14.666;2022-07-11T19:26:10;19.90;88.00
59015;DHT22;44799;53.382;14.666;2022-07-11T19:28:39;19.90;88.70
59015;DHT22;44799;53.382;14.666;2022-07-11T19:31:05;19.90;89.10
59015;DHT22;44799;53.382;14.666;2022-07-11T19:33:32;19.80;89.80
59015;DHT22;44799;53.382;14.666;2022-07-11T19:35:58;19.90;89.60
59015;DHT22;44799;53.382;14.666;2022-07-11T19:38:24;19.80;90.10
59015;DHT22;44799;53.382;14.666;2022-07-11T19:40:50;19.80;90.40
59015;DHT22;44799;53.382;14.666;2022-07-11T19:43:16;19.80;90.50
59015;DHT22;44799;53.382;14.666;2022-07-11T19:45:43;19.70;90.90
59015;DHT22;44799;53.382;14.666;2022-07-11T19:48:09;19.60;91.10
59015;DHT22;44799;53.382;14.666;2022-07-11T19:50:39;19.60;91.40
59015;DHT22;44799;53.382;14.666;2022-07-11T19:53:06;19.60;91.60
59015;DHT22;44799;53.382;14.666;2022-07-11T19:55:32;19.60;91.70
59015;DHT22;44799;53.382;14.666;2022-07-11T19:58:17;19.60;91.80
59015;DHT22;44799;53.382;14.666;2022-07-11T20:00:43;19.70;91.70
59015;DHT22;44799;53.382;14.666;2022-07-11T20:03:10;19.70;92.00
59015;DHT22;44799;53.382;14.666;2022-07-11T20:05:36;19.70;91.90
59015;DHT22;44799;53.382;14.666;2022-07-11T20:08:04;19.70;92.20
59015;DHT22;44799;53.382;14.666;2022-07-11T20:10:30;19.70;92.40
59015;DHT22;44799;53.382;14.666;2022-07-11T20:12:56;19.70;92.60
59015;DHT22;44799;53.382;14.666;2022-07-11T20:15:22;19.60;92.50
59015;DHT22;44799;53.382;14.666;2022-07-11T20:17:49;19.60;92.70
59015;DHT22;44799;53.382;14.666;2022-07-11T20:20:15;19.60;92.80
59015;DHT22;44799;53.382;14.666;2022-07-11T20:22:41;19.50;92.90
59015;DHT22;44799;53.382;14.666;2022-07-11T20:25:07;19.40;93.10
59015;DHT22;44799;53.382;14.666;2022-07-11T20:27:34;19.30;93.20
59015;DHT22;44799;53.382;14.666;2022-07-11T20:30:00;19.20;93.50
59015;DHT22;44799;53.382;14.666;2022-07-11T20:32:29;19.20;93.60
59015;DHT22;44799;53.382;14.666;2022-07-11T20:34:55;19.20;93.60
59015;DHT22;44799;53.382;14.666;2022-07-11T20:37:22;19.10;93.50
59015;DHT22;44799;53.382;14.666;2022-07-11T20:39:48;19.00;93.70
59015;DHT22;44799;53.382;14.666;2022-07-11T20:42:14;19.10;94.10
59015;DHT22;44799;53.382;14.666;2022-07-11T20:44:43;19.00;94.00
59015;DHT22;44799;53.382;14.666;2022-07-11T20:47:09;19.00;93.90
59015;DHT22;44799;53.382;14.666;2022-07-11T20:49:35;18.90;93.90
59015;DHT22;44799;53.382;14.666;2022-07-11T20:52:01;18.80;94.00
59015;DHT22;44799;53.382;14.666;2022-07-11T20:54:27;18.70;94.10
59015;DHT22;44799;53.382;14.666;2022-07-11T20:56:53;18.60;94.30
59015;DHT22;44799;53.382;14.666;2022-07-11T20:59:20;18.60;94.50
59015;DHT22;44799;53.382;14.666;2022-07-11T21:01:49;18.60;94.80
59015;DHT22;44799;53.382;14.666;2022-07-11T21:04:15;18.60;94.60
59015;DHT22;44799;53.382;14.666;2022-07-11T21:06:41;18.20;94.60
59015;DHT22;44799;53.382;14.666;2022-07-11T21:09:07;18.60;94.60
59015;DHT22;44799;53.382;14.666;2022-07-11T21:11:32;18.60;94.60
59015;DHT22;44799;53.382;14.666;2022-07-11T21:14:02;18.50;94.40
59015;DHT22;44799;53.382;14.666;2022-07-11T21:16:28;18.50;94.60
59015;DHT22;44799;53.382;14.666;2022-07-11T21:18:54;18.40;94.70
59015;DHT22;44799;53.382;14.666;2022-07-11T21:21:20;18.50;95.00
59015;DHT22;44799;53.382;14.666;2022-07-11T21:23:46;18.40;94.60
59015;DHT22;44799;53.382;14.666;2022-07-11T21:26:12;18.30;94.80
59015;DHT22;44799;53.382;14.666;2022-07-11T21:28:38;18.30;94.90
59015;DHT22;44799;53.382;14.666;2022-07-11T21:31:04;18.20;94.90
59015;DHT22;44799;53.382;14.666;2022-07-11T21:33:30;18.20;95.00
59015;DHT22;44799;53.382;14.666;2022-07-11T21:35:57;18.10;95.00
59015;DHT22;44799;53.382;14.666;2022-07-11T21:38:22;18.10;95.10
59015;DHT22;44799;53.382;14.666;2022-07-11T21:40:48;18.00;95.00
59015;DHT22;44799;53.382;14.666;2022-07-11T21:43:15;18.10;95.00
59015;DHT22;44799;53.382;14.666;2022-07-11T21:45:41;18.10;94.90
59015;DHT22;44799;53.382;14.666;2022-07-11T21:48:10;18.00;95.00
59015;DHT22;44799;53.382;14.666;2022-07-11T21:50:36;18.00;94.90
59015;DHT22;44799;53.382;14.666;2022-07-11T21:53:01;17.90;95.00
59015;DHT22;44799;53.382;14.666;2022-07-11T21:55:27;18.00;94.90
59015;DHT22;44799;53.382;14.666;2022-07-11T21:57:53;17.90;94.90
59015;DHT22;44799;53.382;14.666;2022-07-11T22:00:19;17.80;95.00
59015;DHT22;44799;53.382;14.666;2022-07-11T22:02:48;17.80;94.60
59015;DHT22;44799;53.382;14.666;2022-07-11T22:05:14;17.80;94.70
59015;DHT22;44799;53.382;14.666;2022-07-11T22:07:39;17.80;94.50
59015;DHT22;44799;53.382;14.666;2022-07-11T22:10:06;17.70;94.60
59015;DHT22;44799;53.382;14.666;2022-07-11T22:12:32;17.70;94.50
59015;DHT22;44799;53.382;14.666;2022-07-11T22:14:58;17.70;94.40
59015;DHT22;44799;53.382;14.666;2022-07-11T22:17:23;17.70;94.50
59015;DHT22;44799;53.382;14.666;2022-07-11T22:19:49;17.60;94.50
59015;DHT22;44799;53.382;14.666;2022-07-11T22:22:15;17.60;94.80
59015;DHT22;44799;53.382;14.666;2022-07-11T22:24:41;17.60;94.70
59015;DHT22;44799;53.382;14.666;2022-07-11T22:27:07;17.70;94.70
59015;DHT22;44799;53.382;14.666;2022-07-11T22:29:33;17.60;94.70
59015;DHT22;44799;53.382;14.666;2022-07-11T22:31:59;17.60;94.80
59015;DHT22;44799;53.382;14.666;2022-07-11T22:34:25;17.50;94.90
59015;DHT22;44799;53.382;14.666;2022-07-11T22:36:50;17.50;94.90
59015;DHT22;44799;53.382;14.666;2022-07-11T22:39:16;17.50;95.00
59015;DHT22;44799;53.382;14.666;2022-07-11T22:41:42;17.50;94.70
59015;DHT22;44799;53.382;14.666;2022-07-11T22:44:08;17.40;94.70
59015;DHT22;44799;53.382;14.666;2022-07-11T22:46:34;17.40;94.50
59015;DHT22;44799;53.382;14.666;2022-07-11T22:49:00;17.40;94.80
59015;DHT22;44799;53.382;14.666;2022-07-11T22:51:26;17.30;94.70
59015;DHT22;44799;53.382;14.666;2022-07-11T22:53:52;17.30;94.70
59015;DHT22;44799;53.382;14.666;2022-07-11T22:56:18;17.30;94.70
59015;DHT22;44799;53.382;14.666;2022-07-11T22:58:44;17.20;94.60
59015;DHT22;44799;53.382;14.666;2022-07-11T23:01:10;17.20;94.50
59015;DHT22;44799;53.382;14.666;2022-07-11T23:03:36;17.20;94.50
59015;DHT22;44799;53.382;14.666;2022-07-11T23:06:03;17.20;94.50
59015;DHT22;44799;53.382;14.666;2022-07-11T23:08:29;17.20;94.30
59015;DHT22;44799;53.382;14.666;2022-07-11T23:10:55;17.10;94.20
59015;DHT22;44799;53.382;14.666;2022-07-11T23:13:21;17.10;94.20
59015;DHT22;44799;53.382;14.666;2022-07-11T23:15:46;17.10;94.20
59015;DHT22;44799;53.382;14.666;2022-07-11T23:18:12;17.00;94.20
59015;DHT22;44799;53.382;14.666;2022-07-11T23:20:38;17.00;93.90
59015;DHT22;44799;53.382;14.666;2022-07-11T23:23:04;17.00;94.00
59015;DHT22;44799;53.382;14.666;2022-07-11T23:25:30;17.00;94.00
59015;DHT22;44799;53.382;14.666;2022-07-11T23:27:56;16.90;94.00
59015;DHT22;44799;53.382;14.666;2022-07-11T23:30:22;16.90;94.00
59015;DHT22;44799;53.382;14.666;2022-07-11T23:32:48;16.90;93.90
59015;DHT22;44799;53.382;14.666;2022-07-11T23:35:14;16.90;94.10
59015;DHT22;44799;53.382;14.666;2022-07-11T23:37:40;16.80;94.10
59015;DHT22;44799;53.382;14.666;2022-07-11T23:40:06;16.80;94.30
59015;DHT22;44799;53.382;14.666;2022-07-11T23:42:33;16.80;94.30
59015;DHT22;44799;53.382;14.666;2022-07-11T23:44:59;16.70;94.20
59015;DHT22;44799;53.382;14.666;2022-07-11T23:47:25;16.70;94.20
59015;DHT22;44799;53.382;14.666;2022-07-11T23:49:50;16.80;94.10
59015;DHT22;44799;53.382;14.666;2022-07-11T23:52:17;16.80;93.90
59015;DHT22;44799;53.382;14.666;2022-07-11T23:54:43;16.70;93.90
59015;DHT22;44799;53.382;14.666;2022-07-11T23:57:09;16.70;94.10
59015;DHT22;44799;53.382;14.666;2022-07-11T23:59:35;16.70;93.80
